createdAt,value
2022-08-30T00:01:46.106Z,14.90
2022-08-30T00:04:12.357Z,14.85
2022-08-30T00:06:38.605Z,14.83
2022-08-30T00:09:04.860Z,14.81
2022-08-30T00:11:31.079Z,14.77
2022-08-30T00:13:57.377Z,14.76
2022-08-30T00:16:23.706Z,14.72
2022-08-30T00:18:50.122Z,14.69
2022-08-30T00:21:16.363Z,14.68
2022-08-30T00:23:42.622Z,14.66
2022-08-30T00:26:08.853Z,14.63
2022-08-30T00:28:35.097Z,14.59
2022-08-30T00:31:01.376Z,14.55
2022-08-30T00:33:27.667Z,14.54
2022-08-30T00:35:53.880Z,14.51
2022-08-30T00:38:20.127Z,14.52
2022-08-30T00:40:46.493Z,14.51
2022-08-30T00:43:14.138Z,14.52
2022-08-30T00:45:40.455Z,14.50
2022-08-30T00:48:06.700Z,14.50
2022-08-30T00:50:32.992Z,14.48
2022-08-30T00:52:59.228Z,14.45
2022-08-30T00:55:25.461Z,14.44
2022-08-30T00:57:51.794Z,14.42
2022-08-30T01:00:18.060Z,14.40
2022-08-30T01:02:44.369Z,14.40
2022-08-30T01:05:15.941Z,14.38
2022-08-30T01:07:42.514Z,14.37
2022-08-30T01:10:08.765Z,14.35
2022-08-30T01:12:35.068Z,14.34
2022-08-30T01:15:01.288Z,14.34
2022-08-30T01:17:28.359Z,14.34
2022-08-30T01:19:54.593Z,14.33
2022-08-30T01:22:20.822Z,14.32
2022-08-30T01:24:47.053Z,14.32
2022-08-30T01:27:13.264Z,14.30
2022-08-30T01:29:39.511Z,14.29
2022-08-30T01:32:05.716Z,14.28
2022-08-30T01:34:31.948Z,14.23
2022-08-30T01:36:58.225Z,14.22
2022-08-30T01:39:24.585Z,14.21
2022-08-30T01:41:50.814Z,14.25
2022-08-30T01:44:17.055Z,14.25
2022-08-30T01:46:43.276Z,14.23
2022-08-30T01:49:09.524Z,14.23
2022-08-30T01:51:35.747Z,14.23
2022-08-30T01:54:02.011Z,14.22
2022-08-30T01:56:28.240Z,14.23
2022-08-30T01:58:54.486Z,14.20
2022-08-30T02:01:20.782Z,14.19
2022-08-30T02:03:47.130Z,14.21
2022-08-30T02:06:13.388Z,14.21
2022-08-30T02:08:39.637Z,14.22
2022-08-30T02:11:05.905Z,14.21
2022-08-30T02:13:32.155Z,14.20
2022-08-30T02:15:58.367Z,14.18
2022-08-30T02:18:24.591Z,14.18
2022-08-30T02:20:50.821Z,14.16
2022-08-30T02:23:17.186Z,14.15
2022-08-30T02:25:43.571Z,14.11
2022-08-30T02:28:09.819Z,14.09
2022-08-30T02:30:36.113Z,14.07
2022-08-30T02:33:02.416Z,14.06
2022-08-30T02:35:28.645Z,14.04
2022-08-30T02:37:54.880Z,14.04
2022-08-30T02:40:21.155Z,14.01
2022-08-30T02:42:47.475Z,14.00
2022-08-30T02:45:13.687Z,13.99
2022-08-30T02:47:43.618Z,13.98
2022-08-30T02:50:12.554Z,13.96
2022-08-30T02:52:38.783Z,13.94
2022-08-30T02:55:05.028Z,13.91
2022-08-30T02:57:31.254Z,13.89
2022-08-30T02:59:57.496Z,13.91
2022-08-30T03:02:23.777Z,13.94
2022-08-30T03:04:50.021Z,13.96
2022-08-30T03:07:16.236Z,13.99
2022-08-30T03:09:42.471Z,13.98
2022-08-30T03:12:08.696Z,13.96
2022-08-30T03:14:34.952Z,13.94
2022-08-30T03:17:01.175Z,13.94
2022-08-30T03:19:27.501Z,13.91
2022-08-30T03:21:53.854Z,13.87
2022-08-30T03:24:20.221Z,13.85
2022-08-30T03:26:46.782Z,13.83
2022-08-30T03:29:13.116Z,13.81
2022-08-30T03:31:52.450Z,13.79
2022-08-30T03:34:19.734Z,13.76
2022-08-30T03:36:46.034Z,13.74
2022-08-30T03:39:12.541Z,13.73
2022-08-30T03:41:40.351Z,13.71
2022-08-30T03:44:07.551Z,13.68
2022-08-30T03:46:37.335Z,13.68
2022-08-30T03:49:03.987Z,13.67
2022-08-30T03:51:30.378Z,13.67
2022-08-30T03:53:56.677Z,13.66
2022-08-30T03:56:22.993Z,13.65
2022-08-30T03:58:51.870Z,13.65
2022-08-30T04:01:18.147Z,13.66
2022-08-30T04:03:44.490Z,13.65
2022-08-30T04:06:10.782Z,13.66
2022-08-30T04:08:37.094Z,13.68
2022-08-30T04:11:03.320Z,13.69
2022-08-30T04:13:31.490Z,13.69
2022-08-30T04:15:57.870Z,13.69
2022-08-30T04:18:24.270Z,13.72
2022-08-30T04:20:50.560Z,13.73
2022-08-30T04:23:17.496Z,13.73
2022-08-30T04:25:44.112Z,13.74
2022-08-30T04:28:10.408Z,13.75
2022-08-30T04:30:36.726Z,13.75
2022-08-30T04:33:03.050Z,13.75
2022-08-30T04:35:29.292Z,13.75
2022-08-30T04:37:55.535Z,13.76
2022-08-30T04:40:21.816Z,13.76
2022-08-30T04:42:48.060Z,13.79
2022-08-30T04:45:14.285Z,13.80
2022-08-30T04:47:40.536Z,13.82
2022-08-30T04:50:06.760Z,13.81
2022-08-30T04:52:32.991Z,13.80
2022-08-30T04:54:59.230Z,13.78
2022-08-30T04:57:25.520Z,13.75
2022-08-30T04:59:51.762Z,13.74
2022-08-30T05:02:18.032Z,13.75
2022-08-30T05:04:44.283Z,13.76
2022-08-30T05:07:10.533Z,13.80
2022-08-30T05:09:36.772Z,13.83
2022-08-30T05:12:02.995Z,13.85
2022-08-30T05:14:29.245Z,13.88
2022-08-30T05:16:55.493Z,13.89
2022-08-30T05:19:21.707Z,13.88
2022-08-30T05:21:47.936Z,13.88
2022-08-30T05:24:14.162Z,13.88
2022-08-30T05:26:40.437Z,13.88
2022-08-30T05:29:06.693Z,13.90
2022-08-30T05:31:32.992Z,13.89
2022-08-30T05:33:59.277Z,13.90
2022-08-30T05:36:25.507Z,13.93
2022-08-30T05:38:51.759Z,13.97
2022-08-30T05:41:18.000Z,14.01
2022-08-30T05:43:44.593Z,14.01
2022-08-30T05:46:10.991Z,14.00
2022-08-30T05:48:37.252Z,14.00
2022-08-30T05:51:03.507Z,14.00
2022-08-30T05:53:29.806Z,14.02
2022-08-30T05:55:56.063Z,14.06
2022-08-30T05:58:22.289Z,14.10
2022-08-30T06:00:48.513Z,14.14
2022-08-30T06:03:14.858Z,14.17
2022-08-30T06:05:41.187Z,14.26
2022-08-30T06:08:07.464Z,14.33
2022-08-30T06:10:33.676Z,14.40
2022-08-30T06:12:59.910Z,14.48
2022-08-30T06:15:26.137Z,14.57
2022-08-30T06:17:52.390Z,14.64
2022-08-30T06:20:18.613Z,14.69
2022-08-30T06:22:44.840Z,14.76
2022-08-30T06:25:11.096Z,14.83
2022-08-30T06:27:37.338Z,14.92
2022-08-30T06:30:03.580Z,14.99
2022-08-30T06:32:29.833Z,15.04
2022-08-30T06:34:56.069Z,15.10
2022-08-30T06:37:29.481Z,15.14
2022-08-30T06:39:56.387Z,15.20
2022-08-30T06:42:22.627Z,15.28
2022-08-30T06:44:49.059Z,15.34
2022-08-30T06:47:17.752Z,15.42
2022-08-30T06:49:43.979Z,15.50
2022-08-30T06:52:10.736Z,15.60
2022-08-30T06:54:37.253Z,15.66
2022-08-30T06:57:03.577Z,15.58
2022-08-30T06:59:30.027Z,15.65
2022-08-30T07:01:56.540Z,15.70
2022-08-30T07:04:22.879Z,15.67
2022-08-30T07:06:49.277Z,15.68
2022-08-30T07:09:15.697Z,15.75
2022-08-30T07:11:42.046Z,15.81
2022-08-30T07:14:08.504Z,15.90
2022-08-30T07:16:34.831Z,16.00
2022-08-30T07:19:01.256Z,16.11
2022-08-30T07:21:27.602Z,16.21
2022-08-30T07:23:53.915Z,16.28
2022-08-30T07:26:20.245Z,16.31
2022-08-30T07:28:46.473Z,16.30
2022-08-30T07:31:12.797Z,16.34
2022-08-30T07:33:39.165Z,16.38
2022-08-30T07:36:05.476Z,16.38
2022-08-30T07:38:31.805Z,16.41
2022-08-30T07:40:58.140Z,16.46
2022-08-30T07:43:24.468Z,16.51
2022-08-30T07:45:50.801Z,16.55
2022-08-30T07:48:17.161Z,16.59
2022-08-30T07:50:43.465Z,16.66
2022-08-30T07:53:11.257Z,16.73
2022-08-30T07:55:37.675Z,16.82
2022-08-30T07:58:04.007Z,16.89
2022-08-30T08:00:30.322Z,16.95
2022-08-30T08:02:56.680Z,17.03
2022-08-30T08:05:24.801Z,17.10
2022-08-30T08:07:51.347Z,17.18
2022-08-30T08:10:17.799Z,17.23
2022-08-30T08:12:44.105Z,17.28
2022-08-30T08:15:11.611Z,17.35
2022-08-30T08:17:37.952Z,17.45
2022-08-30T08:20:04.392Z,17.51
2022-08-30T08:22:30.790Z,17.46
2022-08-30T08:24:57.090Z,17.58
2022-08-30T08:27:23.374Z,17.73
2022-08-30T08:29:49.668Z,17.64
2022-08-30T08:32:15.981Z,17.41
2022-08-30T08:34:42.421Z,17.47
2022-08-30T08:37:08.759Z,17.57
2022-08-30T08:39:34.971Z,17.64
2022-08-30T08:42:01.300Z,17.59
2022-08-30T08:44:31.236Z,17.36
2022-08-30T08:47:00.232Z,17.37
2022-08-30T08:49:26.572Z,17.36
2022-08-30T08:51:52.949Z,17.40
2022-08-30T08:54:19.240Z,17.55
2022-08-30T08:56:45.649Z,17.69
2022-08-30T08:59:11.956Z,17.76
2022-08-30T09:01:38.374Z,17.76
2022-08-30T09:04:04.928Z,17.67
2022-08-30T09:06:31.280Z,17.77
2022-08-30T09:08:57.539Z,17.80
2022-08-30T09:11:26.078Z,17.88
2022-08-30T09:13:52.628Z,17.96
2022-08-30T09:16:22.551Z,18.06
2022-08-30T09:18:52.666Z,18.09
2022-08-30T09:21:21.017Z,18.16
2022-08-30T09:23:47.248Z,18.26
2022-08-30T09:26:13.515Z,18.31
2022-08-30T09:28:39.751Z,18.41
2022-08-30T09:31:10.085Z,18.52
2022-08-30T09:33:38.188Z,18.59
2022-08-30T09:36:05.225Z,18.56
2022-08-30T09:38:31.453Z,18.50
2022-08-30T09:40:57.703Z,18.48
2022-08-30T09:43:23.909Z,18.59
2022-08-30T09:45:52.034Z,18.63
2022-08-30T09:48:18.879Z,18.61
2022-08-30T09:50:45.141Z,18.57
2022-08-30T09:53:11.376Z,18.61
2022-08-30T09:55:37.605Z,18.56
2022-08-30T09:58:04.678Z,18.51
2022-08-30T10:00:30.915Z,18.56
2022-08-30T10:02:57.153Z,18.69
2022-08-30T10:05:23.552Z,18.84
2022-08-30T10:07:51.542Z,18.94
2022-08-30T10:10:20.349Z,18.93
2022-08-30T10:12:46.645Z,19.03
2022-08-30T10:15:14.279Z,19.06
2022-08-30T10:17:40.764Z,18.96
2022-08-30T10:20:08.413Z,18.97
2022-08-30T10:22:34.885Z,18.97
2022-08-30T10:25:01.120Z,18.97
2022-08-30T10:27:27.448Z,18.94
2022-08-30T10:29:55.343Z,18.92
2022-08-30T10:32:21.590Z,19.06
2022-08-30T10:34:47.841Z,19.14
2022-08-30T10:37:14.099Z,19.16
2022-08-30T10:39:42.975Z,19.09
2022-08-30T10:42:09.298Z,19.05
2022-08-30T10:44:35.514Z,19.02
2022-08-30T10:47:01.801Z,19.06
2022-08-30T10:49:28.055Z,19.07
2022-08-30T10:51:54.346Z,19.10
2022-08-30T10:54:22.617Z,19.11
2022-08-30T10:56:48.851Z,19.03
2022-08-30T10:59:15.159Z,19.04
2022-08-30T11:01:46.584Z,19.16
2022-08-30T11:04:14.431Z,19.20
2022-08-30T11:06:40.843Z,19.12
2022-08-30T11:09:07.150Z,19.24
2022-08-30T11:11:33.610Z,19.39
2022-08-30T11:14:04.905Z,19.44
2022-08-30T11:16:32.219Z,19.67
2022-08-30T11:18:58.511Z,19.87
2022-08-30T11:21:24.758Z,19.97
2022-08-30T11:23:51.056Z,20.15
2022-08-30T11:26:20.745Z,20.25
2022-08-30T11:28:47.705Z,20.37
2022-08-30T11:31:15.891Z,20.40
2022-08-30T11:33:42.230Z,20.39
2022-08-30T11:36:11.833Z,20.29
2022-08-30T11:38:38.089Z,20.32
2022-08-30T11:41:04.476Z,20.36
2022-08-30T11:43:30.851Z,20.44
2022-08-30T11:45:58.804Z,20.48
2022-08-30T11:48:25.129Z,20.49
2022-08-30T11:50:51.434Z,20.53
2022-08-30T11:53:18.029Z,20.52
2022-08-30T11:55:45.184Z,20.63
2022-08-30T11:58:11.815Z,20.72
2022-08-30T12:00:38.128Z,20.68
2022-08-30T12:03:07.142Z,20.70
2022-08-30T12:05:33.622Z,20.72
2022-08-30T12:07:59.858Z,20.84
2022-08-30T12:10:26.330Z,20.90
2022-08-30T12:12:52.737Z,21.00
2022-08-30T12:15:19.156Z,21.09
2022-08-30T12:17:45.516Z,21.16
2022-08-30T12:20:12.039Z,21.21
2022-08-30T12:22:38.460Z,21.32
2022-08-30T12:25:04.832Z,21.42
2022-08-30T12:27:33.033Z,21.55
2022-08-30T12:29:59.462Z,21.52
2022-08-30T12:32:25.704Z,21.50
2022-08-30T12:34:52.144Z,21.55
2022-08-30T12:37:18.399Z,21.57
2022-08-30T12:39:45.926Z,21.63
2022-08-30T12:42:19.949Z,21.76
2022-08-30T12:44:46.308Z,21.87
2022-08-30T12:47:13.451Z,22.11
2022-08-30T12:49:41.243Z,22.37
2022-08-30T12:52:07.730Z,22.58
2022-08-30T12:54:33.985Z,22.75
2022-08-30T12:57:19.280Z,22.90
2022-08-30T12:59:52.985Z,23.04
2022-08-30T13:02:22.083Z,23.05
2022-08-30T13:04:48.415Z,22.95
2022-08-30T13:07:14.795Z,22.93
2022-08-30T13:09:43.594Z,22.74
2022-08-30T13:12:10.101Z,22.72
2022-08-30T13:14:36.357Z,22.70
2022-08-30T13:17:03.281Z,22.43
2022-08-30T13:19:29.794Z,22.30
2022-08-30T13:21:56.054Z,21.96
2022-08-30T13:24:25.380Z,21.73
2022-08-30T13:26:52.026Z,21.73
2022-08-30T13:29:18.249Z,21.63
2022-08-30T13:31:44.554Z,21.61
2022-08-30T13:34:10.807Z,21.58
2022-08-30T13:36:37.498Z,21.65
2022-08-30T13:39:03.978Z,21.66
2022-08-30T13:41:33.975Z,21.71
2022-08-30T13:44:16.491Z,21.77
2022-08-30T13:46:43.139Z,21.87
2022-08-30T13:49:43.179Z,21.82
2022-08-30T13:52:19.243Z,22.18
2022-08-30T13:54:42.121Z,22.60
2022-08-30T13:57:09.358Z,22.88
2022-08-30T13:59:37.061Z,23.08
2022-08-30T14:02:07.914Z,22.95
2022-08-30T14:04:34.550Z,22.50
2022-08-30T14:07:19.824Z,22.51
2022-08-30T14:09:46.983Z,22.87
2022-08-30T14:12:13.238Z,23.15
2022-08-30T14:14:43.162Z,23.16
2022-08-30T14:17:10.372Z,23.19
2022-08-30T14:19:38.843Z,22.94
2022-08-30T14:22:05.067Z,22.37
2022-08-30T14:24:31.429Z,22.04
2022-08-30T14:26:58.480Z,21.76
2022-08-30T14:29:24.859Z,21.26
2022-08-30T14:31:51.523Z,21.18
2022-08-30T14:34:17.826Z,20.83
2022-08-30T14:36:44.093Z,20.49
2022-08-30T14:39:10.341Z,20.34
2022-08-30T14:41:40.129Z,20.35
2022-08-30T14:44:09.411Z,20.43
2022-08-30T14:46:37.066Z,20.37
2022-08-30T14:49:03.356Z,20.18
2022-08-30T14:51:32.161Z,20.28
2022-08-30T14:53:59.901Z,20.31
2022-08-30T14:56:26.127Z,20.47
2022-08-30T14:58:52.472Z,20.60
2022-08-30T15:01:18.818Z,20.58
2022-08-30T15:03:45.253Z,20.50
2022-08-30T15:06:11.554Z,20.30
2022-08-30T15:08:37.802Z,20.19
2022-08-30T15:11:05.560Z,20.27
2022-08-30T15:13:33.094Z,20.32
2022-08-30T15:15:59.396Z,20.21
2022-08-30T15:18:25.711Z,20.29
2022-08-30T15:20:52.102Z,20.35
2022-08-30T15:23:18.370Z,20.30
2022-08-30T15:25:49.252Z,20.19
2022-08-30T15:28:15.831Z,20.23
2022-08-30T15:30:43.800Z,20.31
2022-08-30T15:33:10.037Z,20.27
2022-08-30T15:35:36.416Z,20.28
2022-08-30T15:38:02.823Z,20.29
2022-08-30T15:40:29.269Z,20.24
2022-08-30T15:42:55.591Z,20.32
2022-08-30T15:45:21.815Z,20.43
2022-08-30T15:47:48.308Z,20.46
2022-08-30T15:50:15.155Z,20.51
2022-08-30T15:52:42.309Z,20.56
2022-08-30T15:55:08.548Z,20.69
2022-08-30T15:57:34.917Z,20.80
2022-08-30T16:00:01.685Z,21.06
2022-08-30T16:02:32.232Z,21.14
2022-08-30T16:04:58.608Z,21.21
2022-08-30T16:07:25.950Z,21.25
2022-08-30T16:09:52.505Z,21.38
2022-08-30T16:12:23.666Z,21.27
2022-08-30T16:14:50.313Z,21.15
2022-08-30T16:17:18.169Z,20.92
2022-08-30T16:19:44.624Z,20.71
2022-08-30T16:22:11.278Z,20.72
2022-08-30T16:24:38.041Z,20.75
2022-08-30T16:27:05.445Z,20.92
2022-08-30T16:29:31.692Z,21.09
2022-08-30T16:31:59.842Z,20.82
2022-08-30T16:34:26.208Z,20.85
2022-08-30T16:36:53.144Z,20.93
2022-08-30T16:39:19.681Z,20.99
2022-08-30T16:41:46.747Z,20.93
2022-08-30T16:44:15.628Z,20.78
2022-08-30T16:46:53.561Z,20.58
2022-08-30T16:49:20.291Z,20.40
2022-08-30T16:51:48.996Z,20.29
2022-08-30T16:54:15.815Z,20.15
2022-08-30T16:56:42.130Z,20.06
2022-08-30T17:01:56.676Z,19.84
2022-08-30T17:04:25.311Z,19.78
2022-08-30T17:06:51.563Z,19.67
2022-08-30T17:09:18.060Z,19.63
2022-08-30T17:11:44.313Z,19.61
2022-08-30T17:14:11.284Z,19.53
2022-08-30T17:16:41.334Z,19.44
2022-08-30T17:19:11.416Z,19.38
2022-08-30T17:21:38.802Z,19.33
2022-08-30T17:24:05.387Z,19.20
2022-08-30T17:26:36.501Z,19.11
2022-08-30T17:29:03.472Z,19.03
2022-08-30T17:31:29.802Z,18.93
2022-08-30T17:34:00.486Z,18.91
2022-08-30T17:36:28.248Z,18.92
2022-08-30T17:38:54.495Z,18.88
2022-08-30T17:41:20.766Z,18.86
2022-08-30T17:43:46.985Z,18.80
2022-08-30T17:46:13.310Z,18.76
2022-08-30T17:48:39.634Z,18.75
2022-08-30T17:51:05.935Z,18.68
2022-08-30T17:53:32.294Z,18.63
2022-08-30T17:55:58.681Z,18.59
2022-08-30T17:58:24.928Z,18.54
2022-08-30T18:00:51.237Z,18.50
2022-08-30T18:03:17.668Z,18.47
2022-08-30T18:05:43.921Z,18.41
2022-08-30T18:08:13.239Z,18.35
2022-08-30T18:10:39.520Z,18.29
2022-08-30T18:13:06.479Z,18.25
2022-08-30T18:15:33.750Z,18.22
2022-08-30T18:18:00.325Z,18.18
2022-08-30T18:20:27.210Z,18.14
2022-08-30T18:22:57.473Z,18.13
2022-08-30T18:25:24.291Z,18.08
2022-08-30T18:27:58.321Z,18.03
2022-08-30T18:30:27.728Z,17.96
2022-08-30T18:32:57.639Z,17.91
2022-08-30T18:35:24.303Z,17.90
2022-08-30T18:37:50.795Z,17.87
2022-08-30T18:43:04.839Z,17.81
2022-08-30T18:45:31.671Z,17.77
2022-08-30T18:47:58.066Z,17.72
2022-08-30T18:50:24.783Z,17.67
2022-08-30T18:52:51.262Z,17.63
2022-08-30T18:55:18.106Z,17.58
2022-08-30T18:57:45.301Z,17.54
2022-08-30T19:00:14.700Z,17.49
2022-08-30T19:02:43.564Z,17.45
2022-08-30T19:05:10.886Z,17.41
2022-08-30T19:07:37.559Z,17.38
2022-08-30T19:10:05.198Z,17.33
2022-08-30T19:12:31.512Z,17.28
2022-08-30T19:15:01.964Z,17.26
2022-08-30T19:17:37.450Z,17.19
2022-08-30T19:20:03.734Z,17.11
2022-08-30T19:22:39.828Z,17.05
2022-08-30T19:25:16.260Z,16.98
2022-08-30T19:27:42.491Z,16.91
2022-08-30T19:30:08.882Z,16.84
2022-08-30T19:32:35.322Z,16.79
2022-08-30T19:35:03.547Z,16.72
2022-08-30T19:37:29.850Z,16.68
2022-08-30T19:39:56.138Z,16.64
2022-08-30T19:42:25.499Z,16.60
2022-08-30T19:44:51.759Z,16.56
2022-08-30T19:47:18.049Z,16.54
2022-08-30T19:49:44.384Z,16.49
2022-08-30T19:52:10.669Z,16.43
2022-08-30T19:54:37.079Z,16.40
2022-08-30T19:57:03.406Z,16.39
2022-08-30T19:59:29.658Z,16.34
2022-08-30T20:01:55.952Z,16.31
2022-08-30T20:04:22.195Z,16.27
2022-08-30T20:06:49.040Z,16.24
2022-08-30T20:09:15.472Z,16.22
2022-08-30T20:11:41.780Z,16.19
2022-08-30T20:14:08.129Z,16.16
2022-08-30T20:16:37.418Z,16.11
2022-08-30T20:19:04.066Z,16.09
2022-08-30T20:21:30.377Z,16.06
2022-08-30T20:23:56.956Z,16.02
2022-08-30T20:24:23.217Z,19.93
2022-08-30T20:24:27.992Z,17.86
2022-08-30T20:26:23.197Z,15.98
2022-08-30T20:29:00.377Z,15.94
2022-08-30T20:31:26.714Z,15.89
2022-08-30T20:33:53.150Z,15.86
2022-08-30T20:36:19.452Z,15.83
2022-08-30T20:38:45.698Z,15.81
2022-08-30T20:41:13.081Z,15.76
2022-08-30T20:43:39.360Z,15.70
2022-08-30T20:46:05.678Z,15.61
2022-08-30T20:48:31.976Z,15.53
2022-08-30T20:50:58.369Z,15.49
2022-08-30T20:53:25.181Z,15.45
2022-08-30T20:55:51.562Z,15.44
2022-08-30T20:58:17.986Z,15.39
2022-08-30T21:00:45.683Z,15.35
2022-08-30T21:03:27.427Z,15.32
2022-08-30T21:05:54.391Z,15.28
2022-08-30T21:08:20.616Z,15.27
2022-08-30T21:10:47.058Z,15.22
2022-08-30T21:13:13.339Z,15.18
2022-08-30T21:15:39.668Z,15.16
2022-08-30T21:18:06.127Z,15.11
2022-08-30T21:20:32.570Z,15.09
2022-08-30T21:22:59.125Z,15.00
2022-08-30T21:25:25.429Z,14.96
2022-08-30T21:27:51.659Z,14.94
2022-08-30T21:30:17.939Z,14.86
2022-08-30T21:32:44.188Z,14.83
2022-08-30T21:35:11.469Z,14.79
2022-08-30T21:37:37.726Z,14.76
2022-08-30T21:40:04.009Z,14.75
2022-08-30T21:42:30.295Z,14.68
2022-08-30T21:44:56.558Z,14.67
2022-08-30T21:47:24.250Z,14.63
2022-08-30T21:49:50.505Z,14.58
2022-08-30T21:52:16.732Z,14.54
2022-08-30T21:54:45.767Z,14.48
2022-08-30T21:57:12.005Z,14.44
2022-08-30T21:59:38.277Z,14.41
2022-08-30T22:02:04.555Z,14.38
2022-08-30T22:04:30.812Z,14.38
2022-08-30T22:06:57.146Z,14.38
2022-08-30T22:09:23.380Z,14.40
2022-08-30T22:11:50.089Z,14.35
2022-08-30T22:14:18.561Z,14.33
2022-08-30T22:16:45.229Z,14.32
2022-08-30T22:19:12.115Z,14.30
2022-08-30T22:21:38.489Z,14.30
2022-08-30T22:24:09.721Z,14.28
2022-08-30T22:26:46.413Z,14.27
2022-08-30T22:29:15.506Z,14.26
2022-08-30T22:31:43.332Z,14.25
2022-08-30T22:34:09.615Z,14.26
2022-08-30T22:36:35.910Z,14.25
2022-08-30T22:39:03.232Z,14.25
2022-08-30T22:41:31.419Z,14.25
2022-08-30T22:43:57.946Z,14.25
2022-08-30T22:46:34.075Z,14.23
2022-08-30T22:49:00.918Z,14.20
2022-08-30T22:51:27.181Z,14.17
2022-08-30T22:53:53.566Z,14.15
2022-08-30T22:56:19.821Z,14.12
2022-08-30T22:58:46.074Z,14.10
2022-08-30T23:01:12.339Z,14.07
2022-08-30T23:03:38.628Z,14.03
2022-08-30T23:06:04.892Z,13.98
2022-08-30T23:08:31.108Z,13.92
2022-08-30T23:10:57.408Z,13.90
2022-08-30T23:13:23.718Z,13.83
2022-08-30T23:15:49.967Z,13.77
2022-08-30T23:18:16.223Z,13.69
2022-08-30T23:20:42.482Z,13.66
2022-08-30T23:23:08.743Z,13.63
2022-08-30T23:25:41.309Z,13.65
2022-08-30T23:28:08.026Z,13.64
2022-08-30T23:30:34.295Z,13.61
2022-08-30T23:33:00.515Z,13.59
2022-08-30T23:35:29.666Z,13.55
2022-08-30T23:37:56.314Z,13.54
2022-08-30T23:40:22.584Z,13.49
2022-08-30T23:42:48.861Z,13.50
2022-08-30T23:45:15.321Z,13.46
2022-08-30T23:47:41.571Z,13.43
2022-08-30T23:50:07.852Z,13.41
2022-08-30T23:52:34.078Z,13.38
2022-08-30T23:55:00.342Z,13.38
2022-08-30T23:57:26.558Z,13.33
2022-08-30T23:59:52.828Z,13.29
